createdAt,value
2018-07-24T05:31:50.276Z,99.90
2018-07-24T05:34:18.860Z,99.90
2018-07-24T05:36:47.447Z,99.90
2018-07-24T05:39:17.741Z,99.90
2018-07-24T05:41:46.335Z,99.90
2018-07-24T05:44:14.875Z,99.90
2018-07-24T05:46:43.447Z,99.90
2018-07-24T05:49:12.022Z,99.90
2018-07-24T05:51:40.604Z,99.90
2018-07-24T05:54:09.133Z,99.90
2018-07-24T05:56:37.697Z,99.90
2018-07-24T05:59:06.262Z,99.90
2018-07-24T06:01:34.818Z,99.90
2018-07-24T06:06:31.671Z,99.90
2018-07-24T06:09:00.232Z,99.90
2018-07-24T06:11:29.789Z,99.90
2018-07-24T06:13:58.453Z,99.90
2018-07-24T06:16:27.063Z,99.90
2018-07-24T06:18:56.570Z,99.90
2018-07-24T06:21:25.939Z,99.90
2018-07-24T06:23:54.870Z,99.90
2018-07-24T06:26:23.438Z,99.90
2018-07-24T06:28:52.307Z,99.90
2018-07-24T06:31:20.961Z,99.90
2018-07-24T06:33:49.719Z,99.90
2018-07-24T06:36:19.261Z,99.90
2018-07-24T06:38:47.839Z,99.90
2018-07-24T06:41:16.426Z,99.90
2018-07-24T06:43:45.081Z,99.90
2018-07-24T06:46:13.715Z,99.90
2018-07-24T06:48:43.151Z,99.90
2018-07-24T06:51:11.845Z,99.90
2018-07-24T06:53:40.466Z,99.90
2018-07-24T06:56:09.710Z,99.90
2018-07-24T06:58:38.324Z,99.90
2018-07-24T07:01:07.263Z,99.90
2018-07-24T07:03:35.895Z,99.90
2018-07-24T07:06:04.603Z,99.90
2018-07-24T07:08:33.233Z,99.90
2018-07-24T07:11:02.060Z,99.90
2018-07-24T07:13:30.862Z,99.90
2018-07-24T07:15:59.543Z,99.90
2018-07-24T07:18:28.269Z,99.90
2018-07-24T07:20:57.011Z,99.90
2018-07-24T07:23:25.767Z,99.90
2018-07-24T07:25:54.418Z,99.90
2018-07-24T07:28:23.216Z,99.90
2018-07-24T07:30:51.828Z,99.90
2018-07-24T07:33:20.497Z,99.90
2018-07-24T07:35:49.062Z,99.90
2018-07-24T07:38:17.630Z,99.90
2018-07-24T07:40:46.239Z,99.90
2018-07-24T07:43:14.820Z,99.90
2018-07-24T07:45:43.371Z,99.90
2018-07-24T07:48:11.941Z,99.90
2018-07-24T07:50:40.478Z,99.90
2018-07-24T07:53:09.047Z,99.90
2018-07-24T07:55:37.609Z,99.90
2018-07-24T07:58:06.479Z,99.90
2018-07-24T08:00:35.110Z,99.90
2018-07-24T08:03:03.716Z,99.90
2018-07-24T08:05:32.299Z,99.90
2018-07-24T08:08:00.844Z,99.90
2018-07-24T08:10:29.856Z,99.90
2018-07-24T08:12:58.735Z,99.90
2018-07-24T08:15:27.384Z,99.90
2018-07-24T08:17:56.926Z,99.90
2018-07-24T08:20:25.490Z,99.90
2018-07-24T08:22:54.100Z,99.70
2018-07-24T08:25:22.707Z,99.90
2018-07-24T08:27:51.454Z,99.90
2018-07-24T08:30:21.208Z,99.90
2018-07-24T08:32:49.926Z,98.90
2018-07-24T08:35:18.512Z,98.10
2018-07-24T08:37:47.092Z,98.60
2018-07-24T08:40:15.714Z,98.00
2018-07-24T08:42:44.302Z,97.20
2018-07-24T08:45:12.910Z,98.20
2018-07-24T08:47:41.501Z,97.70
2018-07-24T08:50:10.098Z,95.80
2018-07-24T08:52:38.767Z,97.70
2018-07-24T08:55:07.496Z,97.10
2018-07-24T08:57:36.036Z,96.60
2018-07-24T09:00:04.874Z,97.90
2018-07-24T09:02:33.488Z,97.10
2018-07-24T09:05:02.113Z,95.70
2018-07-24T09:07:30.757Z,94.60
2018-07-24T09:09:59.409Z,94.70
2018-07-24T09:12:28.041Z,95.40
2018-07-24T09:14:56.635Z,94.40
2018-07-24T09:17:25.782Z,93.40
2018-07-24T09:19:55.361Z,92.60
2018-07-24T09:22:23.924Z,94.10
2018-07-24T09:24:52.525Z,92.70
2018-07-24T09:27:21.110Z,92.20
2018-07-24T09:29:49.683Z,92.50
2018-07-24T09:32:18.291Z,92.00
2018-07-24T09:34:47.731Z,93.30
2018-07-24T09:37:16.279Z,90.80
2018-07-24T09:39:44.891Z,90.60
2018-07-24T09:42:13.463Z,90.00
2018-07-24T09:44:42.019Z,89.10
2018-07-24T09:47:10.927Z,87.20
2018-07-24T09:49:40.707Z,89.40
2018-07-24T09:52:09.355Z,87.70
2018-07-24T09:54:37.960Z,82.60
2018-07-24T09:57:06.552Z,84.30
2018-07-24T09:59:35.186Z,83.00
2018-07-24T10:02:03.844Z,81.00
2018-07-24T10:04:32.424Z,80.40
2018-07-24T10:07:00.975Z,78.30
2018-07-24T10:09:29.578Z,78.70
2018-07-24T10:11:58.178Z,76.70
2018-07-24T10:14:26.761Z,78.90
2018-07-24T10:16:55.469Z,79.70
2018-07-24T10:19:24.876Z,74.70
2018-07-24T10:21:53.768Z,73.70
2018-07-24T10:24:22.402Z,74.30
2018-07-24T10:26:51.034Z,73.70
2018-07-24T10:29:35.637Z,69.90
2018-07-24T10:32:04.324Z,72.30
2018-07-24T10:34:36.843Z,68.60
2018-07-24T10:37:08.468Z,68.30
2018-07-24T10:39:37.594Z,68.80
2018-07-24T10:42:06.859Z,69.20
2018-07-24T10:44:35.788Z,63.30
2018-07-24T10:49:41.687Z,62.50
2018-07-24T10:52:13.394Z,60.20
2018-07-24T10:54:42.024Z,63.20
2018-07-24T10:57:10.967Z,62.70
2018-07-24T10:59:40.728Z,57.20
2018-07-24T11:02:10.219Z,61.50
2018-07-24T11:04:39.456Z,58.70
2018-07-24T11:07:08.405Z,59.40
2018-07-24T11:09:37.400Z,58.40
2018-07-24T11:12:06.475Z,57.70
2018-07-24T11:14:35.501Z,59.20
2018-07-24T11:17:05.220Z,59.50
2018-07-24T11:19:35.161Z,57.00
2018-07-24T11:22:04.722Z,56.80
2018-07-24T11:27:03.462Z,55.90
2018-07-24T11:29:32.092Z,54.20
2018-07-24T11:32:00.876Z,55.10
2018-07-24T11:34:29.646Z,54.10
2018-07-24T11:37:00.905Z,52.90
2018-07-24T11:39:30.123Z,52.40
2018-07-24T11:41:59.147Z,50.60
2018-07-24T11:44:27.779Z,50.90
2018-07-24T11:46:57.143Z,50.20
2018-07-24T11:49:27.521Z,46.80
2018-07-24T11:51:59.990Z,47.40
2018-07-24T11:54:28.660Z,48.60
2018-07-24T11:56:57.527Z,49.10
2018-07-24T11:59:26.860Z,48.60
2018-07-24T12:01:58.338Z,47.10
2018-07-24T12:04:27.988Z,45.10
2018-07-24T12:06:59.726Z,41.50
2018-07-24T12:09:30.841Z,42.30
2018-07-24T12:12:00.246Z,38.50
2018-07-24T12:14:32.088Z,35.60
2018-07-24T12:17:02.821Z,35.50
2018-07-24T12:19:32.103Z,35.00
2018-07-24T12:22:00.843Z,33.60
2018-07-24T12:24:29.488Z,32.80
2018-07-24T12:26:58.235Z,32.40
2018-07-24T12:29:26.864Z,30.70
2018-07-24T12:31:55.592Z,29.60
2018-07-24T12:34:24.258Z,29.50
2018-07-24T12:36:52.969Z,28.50
2018-07-24T12:39:21.641Z,28.20
2018-07-24T12:41:50.336Z,29.00
2018-07-24T12:44:19.057Z,28.30
2018-07-24T12:46:47.733Z,29.50
2018-07-24T12:49:16.335Z,28.20
2018-07-24T12:51:45.013Z,28.50
2018-07-24T12:54:13.639Z,29.50
2018-07-24T12:56:43.053Z,33.20
2018-07-24T12:59:11.639Z,30.50
2018-07-24T13:01:40.271Z,32.40
2018-07-24T13:04:08.969Z,31.60
2018-07-24T13:06:37.507Z,33.00
2018-07-24T13:09:08.652Z,33.80
2018-07-24T13:11:37.288Z,36.20
2018-07-24T13:14:06.102Z,35.90
2018-07-24T13:16:34.754Z,33.50
2018-07-24T13:19:03.399Z,34.80
2018-07-24T13:21:32.722Z,32.20
2018-07-24T13:24:02.396Z,34.30
2018-07-24T13:26:30.972Z,34.10
2018-07-24T13:29:00.589Z,34.60
2018-07-24T13:31:29.240Z,33.90
2018-07-24T13:33:58.745Z,33.90
2018-07-24T13:36:27.629Z,32.70
2018-07-24T13:38:56.536Z,31.40
2018-07-24T13:41:25.147Z,30.80
2018-07-24T13:43:53.792Z,32.10
2018-07-24T13:46:22.868Z,32.50
2018-07-24T13:48:51.443Z,33.60
2018-07-24T13:51:20.043Z,31.80
2018-07-24T13:53:49.631Z,33.60
2018-07-24T13:56:18.760Z,33.20
2018-07-24T13:58:47.361Z,33.90
2018-07-24T14:01:15.935Z,34.20
2018-07-24T14:06:13.415Z,33.60
2018-07-24T14:08:42.102Z,34.30
2018-07-24T14:11:10.684Z,34.80
2018-07-24T14:13:39.378Z,33.90
2018-07-24T14:18:42.944Z,32.40
2018-07-24T14:21:11.799Z,32.60
2018-07-24T14:23:40.399Z,32.20
2018-07-24T14:26:09.627Z,32.70
2018-07-24T14:28:38.239Z,33.00
2018-07-24T14:31:06.850Z,34.20
2018-07-24T14:33:36.376Z,35.00
2018-07-24T14:36:05.590Z,33.40
2018-07-24T14:38:34.647Z,33.30
2018-07-24T14:41:03.890Z,34.20
2018-07-24T14:43:33.355Z,35.30
2018-07-24T14:46:08.474Z,35.80
2018-07-24T14:48:37.445Z,37.50
2018-07-24T14:51:06.044Z,37.90
2018-07-24T14:53:34.902Z,40.60
2018-07-24T14:56:04.090Z,39.10
2018-07-24T14:58:33.334Z,39.30
2018-07-24T15:01:02.740Z,40.50
2018-07-24T15:03:31.359Z,39.20
2018-07-24T15:05:59.940Z,39.40
2018-07-24T15:08:29.497Z,40.30
2018-07-24T15:10:58.111Z,39.20
2018-07-24T15:13:26.699Z,36.80
2018-07-24T15:15:55.303Z,40.20
2018-07-24T15:18:23.918Z,42.40
2018-07-24T15:20:53.472Z,40.60
2018-07-24T15:23:22.067Z,42.00
2018-07-24T15:25:50.662Z,41.40
2018-07-24T15:28:19.348Z,39.10
2018-07-24T15:30:48.556Z,37.10
2018-07-24T15:33:17.370Z,36.20
2018-07-24T15:35:46.060Z,39.00
2018-07-24T15:38:14.713Z,39.50
2018-07-24T15:40:43.392Z,38.50
2018-07-24T15:43:12.113Z,38.40
2018-07-24T15:45:42.035Z,39.50
2018-07-24T15:48:12.745Z,38.60
2018-07-24T15:50:41.359Z,37.10
2018-07-24T15:53:10.971Z,36.60
2018-07-24T15:55:41.384Z,36.30
2018-07-24T15:58:10.291Z,37.60
2018-07-24T16:00:38.971Z,37.10
2018-07-24T16:03:07.562Z,39.20
2018-07-24T16:05:36.530Z,35.90
2018-07-24T16:08:05.390Z,37.40
2018-07-24T16:10:34.025Z,37.40
2018-07-24T16:13:02.623Z,37.40
2018-07-24T16:15:31.384Z,35.10
2018-07-24T16:17:59.923Z,35.20
2018-07-24T16:20:28.561Z,36.10
2018-07-24T16:22:57.702Z,35.70
2018-07-24T16:25:26.665Z,35.50
2018-07-24T16:27:55.426Z,35.70
2018-07-24T16:30:24.090Z,37.50
2018-07-24T16:32:52.691Z,37.40
2018-07-24T16:35:21.308Z,38.60
2018-07-24T16:37:50.908Z,38.30
2018-07-24T16:40:19.838Z,39.10
2018-07-24T16:42:48.399Z,41.40
2018-07-24T16:45:16.969Z,41.10
2018-07-24T16:47:45.576Z,44.80
2018-07-24T16:50:14.176Z,43.10
2018-07-24T16:52:43.726Z,45.30
2018-07-24T16:55:12.672Z,47.10
2018-07-24T16:57:41.259Z,46.30
2018-07-24T17:00:09.879Z,49.80
2018-07-24T17:02:38.516Z,50.00
2018-07-24T17:05:07.417Z,51.40
2018-07-24T17:07:35.990Z,50.10
2018-07-24T17:10:04.875Z,52.40
2018-07-24T17:12:33.458Z,53.00
2018-07-24T17:15:02.032Z,56.20
2018-07-24T17:17:30.647Z,55.80
2018-07-24T17:19:59.443Z,55.80
2018-07-24T17:22:28.922Z,57.50
2018-07-24T17:24:59.169Z,58.70
2018-07-24T17:27:27.793Z,62.60
2018-07-24T17:29:56.310Z,56.80
2018-07-24T17:32:24.929Z,57.60
2018-07-24T17:34:53.871Z,56.70
2018-07-24T17:39:50.875Z,55.40
2018-07-24T17:42:19.797Z,55.40
2018-07-24T17:44:48.534Z,55.90
2018-07-24T17:47:17.207Z,55.50
2018-07-24T17:49:45.893Z,57.70
2018-07-24T17:54:43.105Z,57.20
2018-07-24T17:57:12.840Z,55.50
2018-07-24T17:59:42.050Z,56.70
2018-07-24T18:02:10.693Z,59.10
2018-07-24T18:04:39.283Z,59.10
2018-07-24T18:07:08.241Z,57.50
2018-07-24T18:09:37.670Z,59.00
2018-07-24T18:12:06.407Z,62.80
2018-07-24T18:14:35.020Z,63.10
2018-07-24T18:17:03.704Z,65.30
2018-07-24T18:19:32.360Z,65.70
2018-07-24T18:22:00.978Z,68.50
2018-07-24T18:24:29.583Z,68.30
2018-07-24T18:26:58.194Z,68.30
2018-07-24T18:29:27.369Z,70.10
2018-07-24T18:31:56.006Z,72.80
2018-07-24T18:36:53.469Z,77.30
2018-07-24T18:39:22.073Z,77.90
2018-07-24T18:41:52.418Z,72.80
2018-07-24T18:44:21.042Z,73.60
2018-07-24T18:46:49.999Z,75.80
2018-07-24T18:49:18.599Z,79.70
2018-07-24T18:51:47.179Z,83.30
2018-07-24T18:54:15.787Z,87.10
2018-07-24T18:56:45.167Z,91.10
2018-07-24T18:59:14.679Z,93.60
2018-07-24T19:01:43.286Z,94.10
2018-07-24T19:04:13.729Z,94.50
2018-07-24T19:06:42.749Z,94.20
2018-07-24T19:09:11.940Z,95.70
2018-07-24T19:11:41.543Z,96.10
2018-07-24T19:14:10.231Z,97.30
2018-07-24T19:16:38.853Z,98.00
2018-07-24T19:19:07.411Z,97.30
2018-07-24T19:21:38.467Z,97.60
2018-07-24T19:24:08.134Z,97.70
2018-07-24T19:26:39.582Z,98.00
2018-07-24T19:29:08.163Z,99.90
2018-07-24T19:31:37.144Z,99.90
2018-07-24T19:34:05.787Z,99.90
2018-07-24T19:36:34.409Z,99.90
2018-07-24T19:39:03.263Z,99.90
2018-07-24T19:41:31.861Z,99.90
2018-07-24T19:44:00.504Z,99.90
2018-07-24T19:46:29.348Z,99.90
2018-07-24T19:49:00.997Z,99.90
2018-07-24T19:51:30.317Z,99.90
2018-07-24T19:53:59.256Z,99.90
2018-07-24T19:56:27.831Z,99.90
2018-07-24T19:58:56.422Z,99.90
2018-07-24T20:01:24.984Z,99.90
2018-07-24T20:03:53.627Z,99.90
2018-07-24T20:06:22.223Z,99.90
2018-07-24T20:08:50.824Z,99.90
2018-07-24T20:11:20.191Z,99.90
2018-07-24T20:13:49.667Z,99.90
2018-07-24T20:16:20.056Z,99.90
2018-07-24T20:18:50.699Z,99.90
2018-07-24T20:21:20.015Z,99.90
2018-07-24T20:23:48.713Z,99.90
2018-07-24T20:26:17.301Z,99.90
2018-07-24T20:28:46.016Z,99.90
2018-07-24T20:31:14.575Z,99.90
2018-07-24T20:33:43.209Z,99.90
2018-07-24T20:36:11.826Z,99.90
2018-07-24T20:38:40.693Z,99.90
2018-07-24T20:41:09.389Z,99.90
2018-07-24T20:43:38.460Z,99.90
2018-07-24T20:46:07.079Z,99.90
2018-07-24T20:48:35.688Z,99.90
2018-07-24T20:51:04.347Z,99.90
2018-07-24T20:53:33.005Z,99.90
2018-07-24T20:56:01.643Z,99.90
2018-07-24T20:58:30.239Z,99.90
2018-07-24T21:01:00.136Z,99.90
2018-07-24T21:03:28.816Z,99.90
2018-07-24T21:05:58.134Z,99.90
2018-07-24T21:08:29.148Z,99.90
2018-07-24T21:10:57.738Z,99.90
2018-07-24T21:13:27.375Z,99.90
2018-07-24T21:15:56.047Z,99.90
2018-07-24T21:18:24.743Z,99.90
2018-07-24T21:20:53.476Z,99.90
2018-07-24T21:23:23.134Z,99.90
2018-07-24T21:25:51.720Z,99.90
2018-07-24T21:28:21.383Z,99.90
2018-07-24T21:30:50.018Z,99.90
2018-07-24T21:33:19.095Z,99.90
2018-07-24T21:35:47.767Z,99.90
2018-07-24T21:38:16.514Z,99.90
2018-07-24T21:40:48.176Z,99.90
2018-07-24T21:43:18.712Z,99.90
2018-07-24T21:45:47.338Z,99.90
2018-07-24T21:48:15.971Z,99.90
2018-07-24T21:50:45.637Z,99.90
2018-07-24T21:53:14.246Z,99.90
2018-07-24T21:55:42.855Z,99.90
2018-07-24T21:58:11.577Z,99.90
2018-07-24T22:00:40.231Z,99.90
2018-07-24T22:03:09.566Z,99.90
2018-07-24T22:05:38.138Z,99.90
2018-07-24T22:08:06.987Z,99.90
2018-07-24T22:10:35.659Z,99.90
2018-07-24T22:13:04.331Z,99.90
2018-07-24T22:15:32.892Z,99.90
2018-07-24T22:18:01.510Z,99.90
2018-07-24T22:20:30.091Z,99.90
2018-07-24T22:22:58.664Z,99.90
2018-07-24T22:25:28.283Z,99.90
2018-07-24T22:27:57.120Z,99.90
2018-07-24T22:30:25.690Z,99.90
2018-07-24T22:32:54.341Z,99.90
2018-07-24T22:35:23.860Z,99.90
2018-07-24T22:37:52.551Z,99.90
2018-07-24T22:40:21.893Z,99.90
2018-07-24T22:42:50.556Z,99.90
2018-07-24T22:45:19.392Z,99.90
2018-07-24T22:47:49.337Z,99.90
2018-07-24T22:50:18.032Z,99.90
2018-07-24T22:52:46.972Z,99.90
2018-07-24T22:55:15.715Z,99.90
2018-07-24T22:57:44.311Z,99.90
2018-07-24T23:00:13.784Z,99.90
